Michigan — WDF5344 — position and weather

sailwx.info

Track history (hours):
 
Tides and Currents Weather Stations Pressure Air Temp Water Temp Dewpoint Dewpoint Depression Visibility Wind Speed Wind Dir Waves Ship Positions

Michigan

Owner: GATX Third Aircraft Corporation, San Francisco, CA. More information available from US FCC via Universal Licensing System and Coast Guard Vessel Documentation Center.

Last reported at 2017-Nov-14 10:08 UTC. Time now 2017-Nov-19 10:24 UTC.
Position N 45°30' W 073°31'.

Length 135 m; draft 6.2 m.

Type: Tanker. MMSI: 303583000.

Date/timePositionNaut miles runAvg speedWind from/ knotsBaromVisibWave heightAir tempDewpointWater temp
2017-Nov-14 10:08N 45°30' W 073°31'1 1.5
2017-Nov-14 09:37N 45°30' W 073°31'0 1.9
2017-Nov-14 09:30N 45°29' W 073°31'2 4.5
2017-Nov-14 09:00N 45°27' W 073°30'4 3.7
2017-Nov-14 07:59N 45°24' W 073°34'1 3.1
2017-Nov-14 07:30N 45°24' W 073°36'3 6.6
2017-Nov-14 07:00N 45°25' W 073°41'4 8.9
2017-Nov-14 06:30N 45°24' W 073°47'510.9
2017-Nov-14 06:00N 45°21' W 073°53'2 4.6
2017-Nov-14 05:30N 45°19' W 073°55'1 1.6
2017-Nov-14 05:00N 45°18' W 073°56'0 0.5
2017-Nov-14 04:30N 45°18' W 073°56'2 4.2
2017-Nov-14 03:59N 45°16' W 073°57'3 6.0
2017-Nov-14 03:29N 45°14' W 074°00'4 7.7
2017-Nov-14 02:54N 45°13' W 074°07'274 7.2
2017-Nov-12 13:00N 42°36' W 079°18'230 5.6 180 / 131026.010.8
2017-Nov-10 20:00N 45°12' W 083°12'16 7.3 310 / 161035.8
2017-Nov-10 17:45N 45°24' W 083°29'410.5
2017-Nov-10 17:24N 45°25' W 083°33'410.5
2017-Nov-10 17:00N 45°27' W 083°39'510.4
2017-Nov-10 16:30N 45°29' W 083°45'510.4
2017-Nov-10 16:00N 45°32' W 083°52'610.4
2017-Nov-10 15:25N 45°35' W 083°59'20 9.5
2017-Nov-10 13:18N 45°41' W 084°27'5 1.6
2017-Nov-10 10:00N 45°36' W 084°30'0 0.0 030 / 131032.1
2017-Nov-10 06:00N 45°36' W 084°30'0 0.0 360 / 181027.0
2017-Nov-09 20:00N 45°36' W 084°30'0 0.0 300 / 171016.9
2017-Nov-09 17:00N 45°36' W 084°30'0 0.0 300 / 101014.510.8
2017-Nov-09 16:00N 45°36' W 084°30'4 0.5 270 / 141014.510.8 -0.0
2017-Nov-09 06:57N 45°40' W 084°28'3 7.1
2017-Nov-09 06:30N 45°43' W 084°29'5 9.9
2017-Nov-09 05:58N 45°46' W 084°36'6 9.9
2017-Nov-09 05:23N 45°49' W 084°43'410.0
2017-Nov-09 05:00N 45°49' W 084°48'5 9.9
2017-Nov-09 04:30N 45°50' W 084°55'5 9.9
2017-Nov-09 04:00N 45°51' W 085°02'5 9.8
2017-Nov-09 03:30N 45°51' W 085°09'510.0
2017-Nov-09 03:00N 45°52' W 085°16'610.0
2017-Nov-09 02:27N 45°53' W 085°24'4 9.8
2017-Nov-09 02:00N 45°53' W 085°30'5 9.9
2017-Nov-09 01:30N 45°52' W 085°37'510.3
2017-Nov-09 01:00N 45°50' W 085°44'510.2
2017-Nov-09 00:30N 45°47' W 085°50'  
2017-Nov-05 06:00N 45°36' W 086°18'1810.6 180 / 181011.110.8
2017-Nov-05 04:17N 45°45' W 085°56'3 9.2
2017-Nov-05 03:59N 45°47' W 085°52'4 9.2
2017-Nov-05 03:30N 45°49' W 085°47'5 9.3
2017-Nov-05 02:58N 45°51' W 085°41'5 9.3
2017-Nov-05 02:29N 45°53' W 085°35'4 8.8
2017-Nov-05 02:00N 45°53' W 085°29'3 6.3
2017-Nov-05 01:30N 45°53' W 085°24'3 6.4
2017-Nov-05 01:00N 45°52' W 085°20'3 6.4
2017-Nov-05 00:30N 45°52' W 085°15'3 6.5
2017-Nov-05 00:00N 45°51' W 085°10'3 6.6
2017-Nov-04 23:30N 45°51' W 085°06'3 6.6
2017-Nov-04 23:00N 45°51' W 085°01'3 6.8
2017-Nov-04 22:30N 45°50' W 084°56'4 8.0
2017-Nov-04 22:00N 45°49' W 084°51'510.8
2017-Nov-04 21:30N 45°49' W 084°43'5 9.9
2017-Nov-04 21:00N 45°46' W 084°37'5 9.9
2017-Nov-04 20:30N 45°43' W 084°31'  
Track history (hours):
 
Tides and Currents Weather Stations Pressure Air Temp Water Temp Dewpoint Dewpoint Depression Visibility Wind Speed Wind Dir Waves Ship Positions

Michigan

Owner: GATX Third Aircraft Corporation, San Francisco, CA. More information available from US FCC via Universal Licensing System and Coast Guard Vessel Documentation Center.

Last reported at 2017-Nov-14 10:08 UTC. Time now 2017-Nov-19 10:24 UTC.
Position N 45°30' W 073°31'.

Length 135 m; draft 6.2 m.

Type: Tanker. MMSI: 303583000.

Date/timePositionNaut miles runAvg speedWind from/ knotsBaromVisibWave heightAir tempDewpointWater temp
2017-Nov-14 10:08N 45°30' W 073°31'1 1.5
2017-Nov-14 09:37N 45°30' W 073°31'0 1.9
2017-Nov-14 09:30N 45°29' W 073°31'2 4.5
2017-Nov-14 09:00N 45°27' W 073°30'4 3.7
2017-Nov-14 07:59N 45°24' W 073°34'1 3.1
2017-Nov-14 07:30N 45°24' W 073°36'3 6.6
2017-Nov-14 07:00N 45°25' W 073°41'4 8.9
2017-Nov-14 06:30N 45°24' W 073°47'510.9
2017-Nov-14 06:00N 45°21' W 073°53'2 4.6
2017-Nov-14 05:30N 45°19' W 073°55'1 1.6
2017-Nov-14 05:00N 45°18' W 073°56'0 0.5
2017-Nov-14 04:30N 45°18' W 073°56'2 4.2
2017-Nov-14 03:59N 45°16' W 073°57'3 6.0
2017-Nov-14 03:29N 45°14' W 074°00'4 7.7
2017-Nov-14 02:54N 45°13' W 074°07'274 7.2
2017-Nov-12 13:00N 42°36' W 079°18'230 5.6 180 / 131026.010.8
2017-Nov-10 20:00N 45°12' W 083°12'16 7.3 310 / 161035.8
2017-Nov-10 17:45N 45°24' W 083°29'410.5
2017-Nov-10 17:24N 45°25' W 083°33'410.5
2017-Nov-10 17:00N 45°27' W 083°39'510.4
2017-Nov-10 16:30N 45°29' W 083°45'510.4
2017-Nov-10 16:00N 45°32' W 083°52'610.4
2017-Nov-10 15:25N 45°35' W 083°59'20 9.5
2017-Nov-10 13:18N 45°41' W 084°27'5 1.6
2017-Nov-10 10:00N 45°36' W 084°30'0 0.0 030 / 131032.1
2017-Nov-10 06:00N 45°36' W 084°30'0 0.0 360 / 181027.0
2017-Nov-09 20:00N 45°36' W 084°30'0 0.0 300 / 171016.9
2017-Nov-09 17:00N 45°36' W 084°30'0 0.0 300 / 101014.510.8
2017-Nov-09 16:00N 45°36' W 084°30'4 0.5 270 / 141014.510.8 -0.0
2017-Nov-09 06:57N 45°40' W 084°28'3 7.1
2017-Nov-09 06:30N 45°43' W 084°29'5 9.9
2017-Nov-09 05:58N 45°46' W 084°36'6 9.9
2017-Nov-09 05:23N 45°49' W 084°43'410.0
2017-Nov-09 05:00N 45°49' W 084°48'5 9.9
2017-Nov-09 04:30N 45°50' W 084°55'5 9.9
2017-Nov-09 04:00N 45°51' W 085°02'5 9.8
2017-Nov-09 03:30N 45°51' W 085°09'510.0
2017-Nov-09 03:00N 45°52' W 085°16'610.0
2017-Nov-09 02:27N 45°53' W 085°24'4 9.8
2017-Nov-09 02:00N 45°53' W 085°30'5 9.9
2017-Nov-09 01:30N 45°52' W 085°37'510.3
2017-Nov-09 01:00N 45°50' W 085°44'510.2
2017-Nov-09 00:30N 45°47' W 085°50'  
2017-Nov-05 06:00N 45°36' W 086°18'1810.6 180 / 181011.110.8
2017-Nov-05 04:17N 45°45' W 085°56'3 9.2
2017-Nov-05 03:59N 45°47' W 085°52'4 9.2
2017-Nov-05 03:30N 45°49' W 085°47'5 9.3
2017-Nov-05 02:58N 45°51' W 085°41'5 9.3
2017-Nov-05 02:29N 45°53' W 085°35'4 8.8
2017-Nov-05 02:00N 45°53' W 085°29'3 6.3
2017-Nov-05 01:30N 45°53' W 085°24'3 6.4
2017-Nov-05 01:00N 45°52' W 085°20'3 6.4
2017-Nov-05 00:30N 45°52' W 085°15'3 6.5
2017-Nov-05 00:00N 45°51' W 085°10'3 6.6
2017-Nov-04 23:30N 45°51' W 085°06'3 6.6
2017-Nov-04 23:00N 45°51' W 085°01'3 6.8
2017-Nov-04 22:30N 45°50' W 084°56'4 8.0
2017-Nov-04 22:00N 45°49' W 084°51'510.8
2017-Nov-04 21:30N 45°49' W 084°43'5 9.9
2017-Nov-04 21:00N 45°46' W 084°37'5 9.9
2017-Nov-04 20:30N 45°43' W 084°31'  

Dump ship's entire track history